Time;durP1;ratioP1;P1;durP2;ratioP2;P2;SDS_P1;SDS_P2;PMS_P1;PMS_P2;Temp;Humidity;BMP_temperature;BMP_pressure;BME280_temperature;BME280_humidity;BME280_pressure;Samples;Min_cycle;Max_cycle;Signal;HPM_P1;HPM_P2
2021/06/11 00:00:14;;;;;;;28.07;26.07;;;17.50;87.90;;;;;;5073384;28;20453;-79
2021/06/11 00:02:41;;;;;;;28.30;26.60;;;17.60;87.70;;;;;;5070542;28;20492;-78
2021/06/11 00:05:08;;;;;;;29.00;26.90;;;17.60;87.60;;;;;;5074417;28;20475;-79
2021/06/11 00:07:35;;;;;;;28.40;26.50;;;17.50;87.60;;;;;;5071284;28;21121;-78
2021/06/11 00:10:01;;;;;;;28.80;26.90;;;17.50;87.90;;;;;;5079352;28;20819;-78
2021/06/11 00:12:28;;;;;;;28.80;27.00;;;17.40;87.90;;;;;;5072661;28;20480;-78
2021/06/11 00:14:54;;;;;;;27.80;26.00;;;17.30;88.40;;;;;;5078579;28;20461;-78
2021/06/11 00:17:22;;;;;;;28.53;26.73;;;17.20;88.70;;;;;;5066008;28;20563;-79
2021/06/11 00:19:48;;;;;;;29.03;27.00;;;17.30;88.80;;;;;;5066028;28;20468;-77
2021/06/11 00:22:15;;;;;;;28.03;26.27;;;17.30;88.70;;;;;;5074840;28;20468;-78
2021/06/11 00:24:41;;;;;;;28.00;26.30;;;17.20;88.70;;;;;;5073813;28;20466;-78
2021/06/11 00:27:08;;;;;;;28.50;26.70;;;17.30;88.50;;;;;;5083040;28;20606;-77
2021/06/11 00:29:34;;;;;;;27.30;25.60;;;17.30;88.40;;;;;;5080693;28;20531;-77
2021/06/11 00:32:01;;;;;;;29.17;27.13;;;17.30;88.30;;;;;;5084057;28;20517;-77
2021/06/11 00:34:29;;;;;;;29.07;27.17;;;17.20;88.60;;;;;;5079830;28;20481;-78
2021/06/11 00:36:55;;;;;;;28.27;26.57;;;17.20;88.60;;;;;;5080594;28;21052;-79
2021/06/11 00:39:21;;;;;;;28.73;26.90;;;17.20;88.60;;;;;;5077616;28;20453;-79
2021/06/11 00:41:48;;;;;;;29.70;27.80;;;17.10;88.70;;;;;;5081949;28;21103;-78
2021/06/11 00:44:14;;;;;;;27.73;26.03;;;17.10;88.90;;;;;;5078656;28;20481;-79
2021/06/11 00:46:41;;;;;;;27.37;25.57;;;17.00;89.00;;;;;;5079349;28;20869;-78
2021/06/11 00:49:07;;;;;;;29.10;27.10;;;17.00;88.90;;;;;;5068534;28;20458;-79
2021/06/11 00:51:36;;;;;;;28.00;26.00;;;17.10;88.80;;;;;;5077268;28;20560;-79
2021/06/11 00:54:03;;;;;;;28.70;26.90;;;17.10;88.70;;;;;;5078384;28;20527;-78
2021/06/11 00:56:30;;;;;;;28.83;26.93;;;17.10;88.80;;;;;;5083008;28;20514;-78
2021/06/11 00:58:57;;;;;;;28.60;26.80;;;17.00;89.10;;;;;;5075785;28;20474;-77
2021/06/11 01:01:23;;;;;;;28.07;26.27;;;17.00;89.30;;;;;;5075650;28;20461;-77
2021/06/11 01:03:49;;;;;;;28.73;26.80;;;17.00;89.30;;;;;;5075224;28;20525;-77
2021/06/11 01:06:16;;;;;;;29.10;27.17;;;17.00;89.40;;;;;;5077612;28;20476;-78
2021/06/11 01:08:44;;;;;;;28.23;26.43;;;16.90;89.50;;;;;;5074051;28;20995;-78
2021/06/11 01:11:12;;;;;;;28.43;26.63;;;16.90;89.50;;;;;;5082717;28;20574;-77
2021/06/11 01:13:39;;;;;;;27.47;25.83;;;17.00;89.40;;;;;;5081483;28;20502;-77
2021/06/11 01:16:06;;;;;;;28.93;27.07;;;17.00;89.20;;;;;;5081143;28;20826;-77
2021/06/11 01:18:32;;;;;;;28.00;26.20;;;16.90;89.10;;;;;;5087093;28;20487;-77
2021/06/11 01:20:59;;;;;;;29.60;27.27;;;16.90;89.30;;;;;;5084075;28;20489;-77
2021/06/11 01:24:00;;;;;;;28.57;26.70;;;16.90;89.40;;;;;;5079310;28;22662;-78
2021/06/11 01:26:30;;;;;;;28.13;26.33;;;16.90;89.90;;;;;;5080944;28;20460;-77
2021/06/11 01:29:00;;;;;;;28.27;26.57;;;16.80;89.70;;;;;;5078450;28;21155;-78
2021/06/11 01:31:30;;;;;;;30.07;28.17;;;16.80;89.80;;;;;;5084965;28;20958;-77
2021/06/11 01:34:01;;;;;;;27.17;25.57;;;16.80;89.90;;;;;;5083449;28;20473;-77
2021/06/11 01:36:31;;;;;;;28.53;26.63;;;16.80;90.10;;;;;;5090025;28;21422;-77
2021/06/11 01:39:01;;;;;;;28.73;26.93;;;16.90;89.60;;;;;;5080176;28;20461;-78
2021/06/11 01:41:32;;;;;;;29.80;27.70;;;16.90;89.50;;;;;;5080464;28;20533;-78
2021/06/11 01:44:00;;;;;;;29.00;27.20;;;17.00;89.40;;;;;;5069137;28;20496;-78
2021/06/11 01:46:33;;;;;;;28.40;26.53;;;16.90;89.80;;;;;;5078885;28;21252;-77
2021/06/11 01:49:01;;;;;;;28.33;26.63;;;16.80;90.10;;;;;;5080896;28;20513;-78
2021/06/11 01:51:29;;;;;;;28.53;26.80;;;16.90;89.90;;;;;;5079473;28;20464;-78
2021/06/11 01:53:59;;;;;;;28.37;26.67;;;16.80;90.10;;;;;;5078892;28;20467;-78
2021/06/11 01:56:26;;;;;;;28.00;26.20;;;16.80;90.20;;;;;;5079895;28;20515;-77
2021/06/11 01:58:54;;;;;;;29.53;27.63;;;16.80;90.20;;;;;;5081653;28;20576;-77
2021/06/11 02:01:22;;;;;;;29.93;27.67;;;16.90;89.80;;;;;;5078695;28;21066;-77
2021/06/11 02:03:51;;;;;;;27.97;26.17;;;16.90;89.50;;;;;;5073097;28;20485;-77
2021/06/11 02:06:19;;;;;;;28.90;27.00;;;16.90;89.40;;;;;;5081891;28;20597;-76
2021/06/11 02:08:47;;;;;;;30.10;27.90;;;17.00;89.10;;;;;;5077754;28;20891;-77
2021/06/11 02:11:13;;;;;;;29.07;26.90;;;16.90;89.20;;;;;;5084302;28;20458;-76
2021/06/11 02:13:42;;;;;;;31.03;28.80;;;17.00;89.10;;;;;;5081380;28;20473;-77
2021/06/11 02:16:10;;;;;;;30.33;27.93;;;17.00;88.70;;;;;;5071476;28;20467;-77
2021/06/11 02:18:37;;;;;;;29.47;27.47;;;16.90;89.10;;;;;;5072197;28;21057;-77
2021/06/11 02:21:05;;;;;;;29.63;27.57;;;17.00;89.00;;;;;;5078993;28;21167;-77
2021/06/11 02:23:31;;;;;;;31.63;29.50;;;17.00;88.50;;;;;;5079540;28;20491;-77
2021/06/11 02:25:58;;;;;;;30.40;28.30;;;16.90;88.80;;;;;;5081531;28;20464;-77
2021/06/11 02:28:24;;;;;;;30.17;28.17;;;16.80;89.40;;;;;;5078443;28;20951;-76
2021/06/11 02:30:51;;;;;;;30.73;28.73;;;16.80;89.50;;;;;;5078788;28;20457;-77
2021/06/11 02:33:19;;;;;;;29.27;27.33;;;16.70;89.60;;;;;;5070671;28;20487;-77
2021/06/11 02:35:46;;;;;;;29.17;27.27;;;16.70;90.00;;;;;;5067460;28;20454;-77
2021/06/11 02:38:13;;;;;;;31.40;29.23;;;16.60;90.20;;;;;;5075551;28;20470;-76
2021/06/11 02:40:39;;;;;;;30.60;28.13;;;16.70;90.00;;;;;;5080734;28;20480;-77
2021/06/11 02:43:09;;;;;;;29.33;27.40;;;16.60;90.10;;;;;;5073644;28;20486;-77
2021/06/11 02:45:39;;;;;;;29.67;27.67;;;16.80;89.20;;;;;;5079314;28;20453;-77
2021/06/11 02:48:14;;;;;;;29.47;27.47;;;16.70;88.80;;;;;;5079725;28;20449;-77
2021/06/11 02:50:47;;;;;;;29.77;27.77;;;16.60;89.50;;;;;;5082389;28;20552;-77
2021/06/11 02:53:25;;;;;;;29.70;27.83;;;16.50;89.80;;;;;;5077297;28;20481;-76
2021/06/11 02:55:55;;;;;;;34.70;32.30;;;16.40;90.40;;;;;;5082418;28;20460;-77
2021/06/11 02:58:24;;;;;;;29.50;27.50;;;16.30;90.50;;;;;;5069837;28;20531;-77
2021/06/11 03:00:51;;;;;;;29.00;27.00;;;16.40;90.40;;;;;;5078892;28;21537;-77
2021/06/11 03:03:21;;;;;;;30.30;28.30;;;16.40;90.20;;;;;;5078683;28;21151;-76
2021/06/11 03:05:54;;;;;;;29.43;27.53;;;16.40;90.50;;;;;;5081982;28;21495;-77
2021/06/11 03:08:25;;;;;;;30.57;28.57;;;16.40;90.40;;;;;;5083115;28;21100;-77
2021/06/11 03:10:56;;;;;;;32.67;30.60;;;16.40;90.40;;;;;;5085578;28;20449;-77
2021/06/11 03:13:24;;;;;;;29.17;27.27;;;16.40;90.20;;;;;;5078195;28;20508;-83
2021/06/11 03:15:51;;;;;;;31.77;29.77;;;16.40;90.40;;;;;;5079040;28;20928;-77
2021/06/11 03:18:27;;;;;;;29.20;27.30;;;16.40;90.60;;;;;;5074362;28;20576;-77
2021/06/11 03:20:57;;;;;;;28.70;26.70;;;16.40;90.80;;;;;;5069295;28;21103;-77
2021/06/11 03:23:28;;;;;;;30.37;28.27;;;16.30;90.80;;;;;;5076596;28;20492;-78
2021/06/11 03:25:58;;;;;;;30.20;28.10;;;16.20;91.00;;;;;;5081383;28;20488;-77
2021/06/11 03:28:31;;;;;;;28.00;26.20;;;16.20;91.00;;;;;;5076348;28;20565;-78
2021/06/11 03:31:00;;;;;;;29.53;27.50;;;16.20;91.00;;;;;;5077727;28;20457;-77
2021/06/11 03:33:29;;;;;;;29.37;27.47;;;16.20;91.10;;;;;;5078384;28;20473;-77
2021/06/11 03:36:02;;;;;;;31.60;29.37;;;16.30;90.90;;;;;;5085226;28;20468;-77
2021/06/11 03:38:32;;;;;;;30.33;28.23;;;16.30;91.00;;;;;;5074326;28;20491;-78
2021/06/11 03:40:59;;;;;;;29.13;27.33;;;16.20;91.00;;;;;;5075831;28;20611;-79
2021/06/11 03:43:28;;;;;;;31.30;29.20;;;16.30;90.80;;;;;;5076724;28;20976;-77
2021/06/11 03:45:55;;;;;;;29.80;27.80;;;16.20;90.80;;;;;;5077126;28;20991;-78
2021/06/11 03:48:23;;;;;;;30.53;28.60;;;16.20;90.90;;;;;;5075226;28;20470;-77
2021/06/11 03:50:51;;;;;;;29.37;27.17;;;16.30;91.00;;;;;;5078157;28;20461;-77
2021/06/11 03:53:21;;;;;;;29.10;27.20;;;16.40;90.90;;;;;;5082742;28;20483;-77
2021/06/11 03:55:51;;;;;;;29.10;27.10;;;16.50;90.40;;;;;;5081946;28;20472;-79
2021/06/11 03:58:22;;;;;;;29.63;27.40;;;16.80;89.60;;;;;;5074036;28;20460;-78
2021/06/11 04:00:51;;;;;;;35.73;33.50;;;16.80;88.90;;;;;;5075138;28;20491;-77
2021/06/11 04:03:18;;;;;;;32.40;30.30;;;17.00;88.40;;;;;;5079529;28;20950;-77
2021/06/11 04:05:45;;;;;;;29.43;27.53;;;17.20;87.60;;;;;;5079774;28;20467;-79
2021/06/11 04:08:16;;;;;;;31.87;29.60;;;17.30;87.10;;;;;;5078823;28;20461;-77
2021/06/11 04:10:50;;;;;;;29.83;27.83;;;17.30;86.60;;;;;;5085445;28;20491;-77
2021/06/11 04:13:20;;;;;;;31.23;29.13;;;17.30;86.90;;;;;;5081939;28;20548;-79
2021/06/11 04:15:50;;;;;;;33.63;31.43;;;17.30;87.10;;;;;;5080837;28;20468;-77
2021/06/11 04:18:22;;;;;;;31.23;29.13;;;17.40;86.70;;;;;;5075249;28;20477;-78
2021/06/11 04:20:54;;;;;;;32.30;30.20;;;17.40;86.40;;;;;;5077484;28;21083;-77
2021/06/11 04:23:25;;;;;;;32.40;30.23;;;17.50;86.40;;;;;;5080774;28;21197;-78
2021/06/11 04:26:25;;;;;;;31.70;29.50;;;17.80;85.30;;;;;;5083711;28;20464;-77
2021/06/11 04:28:53;;;;;;;31.80;29.80;;;17.80;85.20;;;;;;5082622;28;20937;-78
2021/06/11 04:31:20;;;;;;;34.87;32.60;;;17.80;85.20;;;;;;5080386;28;20865;-77
2021/06/11 04:33:47;;;;;;;34.40;32.10;;;17.90;84.90;;;;;;5071630;28;21017;-79
2021/06/11 04:36:13;;;;;;;31.10;29.10;;;18.00;84.70;;;;;;5084547;28;20493;-77
2021/06/11 04:38:54;;;;;;;32.97;30.83;;;18.10;84.40;;;;;;5082479;28;20460;-77
2021/06/11 04:41:20;;;;;;;35.63;33.20;;;18.20;84.10;;;;;;5074090;28;20457;-81
2021/06/11 04:43:48;;;;;;;34.77;32.47;;;18.20;83.90;;;;;;5078583;28;20557;-80
2021/06/11 04:46:15;;;;;;;36.03;33.83;;;18.40;83.40;;;;;;5079471;28;20497;-79
2021/06/11 04:48:41;;;;;;;33.53;31.43;;;18.50;83.00;;;;;;5087173;28;20468;-80
2021/06/11 04:51:08;;;;;;;34.17;31.90;;;18.50;82.60;;;;;;5080067;28;22848;-85
2021/06/11 04:53:34;;;;;;;38.90;36.47;;;18.60;82.50;;;;;;5087950;28;20533;-80
2021/06/11 04:56:01;;;;;;;36.30;34.00;;;18.60;82.30;;;;;;5078689;28;20461;-82
2021/06/11 04:58:28;;;;;;;34.93;32.63;;;18.60;82.40;;;;;;5080650;28;20958;-79
2021/06/11 05:00:56;;;;;;;36.73;34.33;;;18.80;81.80;;;;;;5083644;28;20597;-79
2021/06/11 05:03:23;;;;;;;36.47;34.27;;;18.80;82.00;;;;;;5086867;28;21259;-80
2021/06/11 05:05:49;;;;;;;35.70;33.30;;;18.90;81.70;;;;;;5085048;28;20544;-82
2021/06/11 05:08:15;;;;;;;36.13;33.43;;;19.00;81.50;;;;;;5090869;28;20453;-84
2021/06/11 05:10:42;;;;;;;37.87;35.47;;;19.10;81.40;;;;;;5095566;28;20481;-83
2021/06/11 05:13:08;;;;;;;34.90;32.50;;;19.20;81.20;;;;;;5093414;28;20486;-80
2021/06/11 05:15:35;;;;;;;35.30;33.00;;;19.40;80.20;;;;;;5085775;28;20729;-81
2021/06/11 05:18:06;;;;;;;35.20;32.90;;;19.50;79.80;;;;;;5093923;28;20499;-81
2021/06/11 05:20:34;;;;;;;36.97;34.37;;;19.50;79.90;;;;;;5094698;28;20457;-78
2021/06/11 05:23:00;;;;;;;35.95;33.40;;;19.60;79.30;;;;;;5089814;28;20461;-78
2021/06/11 05:25:27;;;;;;;37.97;35.57;;;19.70;78.90;;;;;;5085054;28;20237;-79
2021/06/11 05:27:54;;;;;;;37.73;35.13;;;19.50;79.00;;;;;;5085897;28;20456;-79
2021/06/11 05:30:20;;;;;;;37.43;34.90;;;19.30;79.90;;;;;;5076246;28;20579;-78
2021/06/11 05:32:47;;;;;;;36.47;33.73;;;19.20;80.40;;;;;;5080614;28;20998;-78
2021/06/11 05:35:15;;;;;;;36.97;34.53;;;19.30;80.40;;;;;;5072634;28;20507;-78
2021/06/11 05:37:42;;;;;;;36.77;34.37;;;19.30;80.70;;;;;;5078680;28;21238;-78
2021/06/11 05:40:09;;;;;;;35.93;33.50;;;19.40;79.90;;;;;;5077243;28;20462;-79
2021/06/11 05:42:36;;;;;;;37.17;34.47;;;19.40;80.00;;;;;;5085197;28;21322;-79
2021/06/11 05:45:03;;;;;;;36.37;33.77;;;19.40;79.80;;;;;;5083892;28;20481;-80
2021/06/11 05:47:29;;;;;;;37.90;35.37;;;19.30;80.20;;;;;;5075581;28;20519;-80
2021/06/11 05:49:56;;;;;;;38.10;35.60;;;19.40;80.10;;;;;;5070745;28;20480;-77
2021/06/11 05:52:24;;;;;;;38.77;35.77;;;19.40;79.60;;;;;;5084557;28;20544;-76
2021/06/11 05:54:50;;;;;;;34.57;32.27;;;19.40;80.00;;;;;;5083010;28;20460;-78
2021/06/11 05:57:17;;;;;;;36.83;34.43;;;19.50;79.60;;;;;;5074105;28;20576;-78
2021/06/11 05:59:46;;;;;;;37.50;34.60;;;19.60;79.30;;;;;;5064302;28;20453;-78
2021/06/11 06:02:13;;;;;;;38.70;36.23;;;19.70;79.30;;;;;;5065683;28;20450;-78
2021/06/11 06:04:40;;;;;;;36.17;33.73;;;19.70;79.10;;;;;;5064134;28;20691;-78
2021/06/11 06:07:06;;;;;;;36.63;34.10;;;19.80;78.90;;;;;;5074653;28;20857;-78
2021/06/11 06:09:34;;;;;;;37.57;35.17;;;19.80;79.00;;;;;;5075163;28;20493;-79
2021/06/11 06:12:00;;;;;;;37.50;34.77;;;20.00;78.70;;;;;;5076936;28;21141;-78
2021/06/11 06:17:49;;;;;;;38.10;35.70;;;20.30;78.00;;;;;;5074924;28;20451;-78
2021/06/11 06:20:16;;;;;;;38.87;36.37;;;20.30;77.80;;;;;;5077982;28;20450;-78
2021/06/11 06:22:43;;;;;;;38.90;35.97;;;20.40;77.50;;;;;;5064258;28;114052;-79
2021/06/11 06:25:12;;;;;;;37.83;35.23;;;20.40;77.60;;;;;;5077301;28;20759;-78
2021/06/11 06:27:40;;;;;;;36.13;33.73;;;20.50;77.20;;;;;;5070306;28;20567;-77
2021/06/11 06:30:09;;;;;;;39.40;36.70;;;20.40;77.40;;;;;;5086077;28;20461;-79
2021/06/11 06:32:36;;;;;;;39.23;36.67;;;20.50;77.30;;;;;;5088176;28;20477;-80
2021/06/11 06:35:05;;;;;;;37.07;34.57;;;20.70;77.00;;;;;;5076682;28;20822;-79
2021/06/11 06:37:32;;;;;;;41.20;38.40;;;21.00;75.90;;;;;;5073170;28;20510;-80
2021/06/11 06:39:59;;;;;;;38.07;35.53;;;21.30;75.40;;;;;;5091256;28;20456;-79
2021/06/11 06:42:27;;;;;;;38.70;36.30;;;21.40;75.10;;;;;;5090592;28;20540;-79
2021/06/11 06:44:54;;;;;;;37.53;34.90;;;21.60;74.20;;;;;;5068178;28;20492;-79
2021/06/11 06:47:20;;;;;;;38.23;35.70;;;21.80;73.20;;;;;;5072055;28;21047;-79
2021/06/11 06:49:49;;;;;;;49.13;38.37;;;21.90;72.80;;;;;;5069879;28;20457;-80
2021/06/11 06:52:16;;;;;;;40.30;36.17;;;21.90;72.90;;;;;;5075945;28;20494;-79
2021/06/11 06:54:43;;;;;;;41.87;37.80;;;22.00;73.00;;;;;;5068847;28;20450;-79
2021/06/11 06:57:10;;;;;;;39.33;36.50;;;22.20;72.20;;;;;;5083674;28;20462;-79
2021/06/11 06:59:38;;;;;;;45.00;39.17;;;22.30;71.80;;;;;;5085436;28;20460;-78
2021/06/11 07:02:05;;;;;;;37.97;35.10;;;22.40;71.70;;;;;;5070834;28;20565;-78
2021/06/11 07:04:31;;;;;;;40.43;37.10;;;22.40;71.10;;;;;;5074450;28;21322;-79
2021/06/11 07:06:58;;;;;;;40.83;37.53;;;22.50;70.70;;;;;;5071489;28;20468;-78
2021/06/11 07:09:25;;;;;;;38.57;35.87;;;22.60;70.80;;;;;;5065135;28;20522;-78
2021/06/11 07:11:52;;;;;;;39.87;37.03;;;22.80;70.10;;;;;;5070713;28;20472;-78
2021/06/11 07:14:19;;;;;;;39.37;36.57;;;22.80;69.50;;;;;;5071631;28;21115;-78
2021/06/11 07:16:48;;;;;;;39.40;36.40;;;22.70;69.40;;;;;;5069107;28;20554;-78
2021/06/11 07:19:15;;;;;;;43.70;40.50;;;22.90;69.30;;;;;;5067928;28;20489;-80
2021/06/11 07:21:41;;;;;;;39.70;37.00;;;23.00;69.60;;;;;;5082652;28;20534;-79
2021/06/11 07:24:11;;;;;;;41.50;38.70;;;23.10;69.40;;;;;;5069344;28;21072;-80
2021/06/11 07:26:38;;;;;;;39.97;37.37;;;23.20;68.80;;;;;;5074650;28;21364;-79
2021/06/11 07:29:05;;;;;;;39.63;37.03;;;23.30;68.80;;;;;;5083790;28;20486;-79
2021/06/11 07:31:32;;;;;;;41.00;38.00;;;23.40;67.90;;;;;;5074926;28;20468;-79
2021/06/11 07:34:00;;;;;;;41.03;38.40;;;23.50;67.80;;;;;;5082497;28;20481;-79
2021/06/11 07:36:26;;;;;;;42.67;39.70;;;23.70;66.30;;;;;;5074871;28;20483;-79
2021/06/11 07:38:52;;;;;;;40.83;38.03;;;23.70;66.40;;;;;;5082357;28;20467;-79
2021/06/11 07:41:20;;;;;;;42.70;39.80;;;23.50;66.80;;;;;;5076889;28;21095;-79
2021/06/11 07:43:47;;;;;;;43.97;41.17;;;23.50;67.10;;;;;;5077575;28;20481;-79
2021/06/11 07:46:15;;;;;;;43.83;41.03;;;23.40;67.10;;;;;;5078152;28;20470;-79
2021/06/11 07:48:42;;;;;;;41.60;38.90;;;23.40;67.70;;;;;;5069693;28;20822;-79
2021/06/11 07:51:10;;;;;;;43.97;40.73;;;23.60;67.60;;;;;;5080498;28;20507;-79
2021/06/11 07:53:36;;;;;;;40.20;37.67;;;23.70;66.80;;;;;;5082088;28;20477;-79
2021/06/11 07:56:04;;;;;;;42.80;40.03;;;23.90;66.90;;;;;;5078478;28;20461;-79
2021/06/11 07:58:30;;;;;;;42.53;39.53;;;23.90;66.60;;;;;;5073853;28;20453;-79
2021/06/11 08:00:57;;;;;;;41.43;38.30;;;24.10;65.80;;;;;;5075270;28;20616;-78
2021/06/11 08:03:23;;;;;;;45.23;42.17;;;24.10;65.90;;;;;;5080064;28;20484;-78
2021/06/11 08:05:49;;;;;;;42.50;39.60;;;24.20;66.10;;;;;;5073596;28;20461;-78
2021/06/11 08:08:17;;;;;;;44.20;40.83;;;24.10;66.00;;;;;;5073455;28;20507;-78
2021/06/11 08:10:44;;;;;;;38.70;36.20;;;24.20;66.20;;;;;;5083347;28;20510;-77
2021/06/11 08:13:10;;;;;;;41.37;38.77;;;24.30;65.70;;;;;;5080307;28;20496;-79
2021/06/11 08:15:36;;;;;;;42.47;39.40;;;24.30;64.60;;;;;;5080317;28;20518;-79
2021/06/11 08:18:04;;;;;;;40.03;37.33;;;24.30;64.40;;;;;;5074490;28;21234;-79
2021/06/11 08:20:33;;;;;;;45.90;42.97;;;24.40;63.80;;;;;;5081767;28;20461;-79
2021/06/11 08:23:00;;;;;;;41.03;37.63;;;24.50;63.90;;;;;;5078217;28;20562;-79
2021/06/11 08:25:28;;;;;;;39.60;37.00;;;24.60;63.90;;;;;;5074233;28;20480;-80
2021/06/11 08:27:56;;;;;;;40.63;38.03;;;24.80;62.90;;;;;;5083429;28;20525;-79
2021/06/11 08:30:24;;;;;;;39.97;37.47;;;24.80;62.80;;;;;;5086603;28;20817;-79
2021/06/11 08:32:51;;;;;;;41.30;38.60;;;24.60;63.40;;;;;;5077000;28;22280;-79
2021/06/11 08:35:18;;;;;;;38.77;36.30;;;24.50;63.40;;;;;;5082310;28;20527;-79
2021/06/11 08:37:45;;;;;;;39.77;37.20;;;24.60;63.60;;;;;;5082165;28;20449;-79
2021/06/11 08:40:13;;;;;;;40.73;37.10;;;24.90;62.60;;;;;;5084526;28;20448;-79
2021/06/11 08:42:44;;;;;;;38.83;36.40;;;24.90;62.30;;;;;;5066543;28;20469;-79
2021/06/11 08:45:11;;;;;;;39.80;37.30;;;24.80;62.30;;;;;;5087970;28;20473;-79
2021/06/11 08:47:39;;;;;;;42.03;39.33;;;24.90;61.90;;;;;;5065392;28;20486;-79
2021/06/11 08:50:07;;;;;;;43.30;40.40;;;24.60;62.60;;;;;;5066234;28;21172;-79
2021/06/11 08:52:34;;;;;;;39.03;36.43;;;24.50;62.70;;;;;;5076477;28;20481;-79
2021/06/11 08:55:00;;;;;;;42.03;39.47;;;24.40;63.20;;;;;;5073891;28;20540;-79
2021/06/11 08:57:27;;;;;;;38.90;36.40;;;24.30;63.50;;;;;;5065514;28;21457;-79
2021/06/11 08:59:54;;;;;;;43.03;40.47;;;24.40;63.00;;;;;;5079157;28;20457;-78
2021/06/11 09:02:23;;;;;;;39.67;37.27;;;24.60;62.50;;;;;;5080845;28;20514;-79
2021/06/11 09:04:53;;;;;;;39.40;36.37;;;24.80;62.00;;;;;;5082299;28;20476;-79
2021/06/11 09:07:23;;;;;;;40.83;38.23;;;25.00;61.70;;;;;;5068145;28;20457;-79
2021/06/11 09:09:51;;;;;;;42.40;39.40;;;25.20;61.30;;;;;;5081908;28;21085;-79
2021/06/11 09:12:36;;;;;;;42.40;39.47;;;25.40;61.00;;;;;;5073306;28;20457;-79
2021/06/11 09:15:07;;;;;;;41.57;39.00;;;25.50;60.70;;;;;;5083138;28;20531;-79
2021/06/11 09:17:45;;;;;;;41.37;38.67;;;25.70;60.10;;;;;;5066322;28;20458;-79
2021/06/11 09:20:14;;;;;;;45.50;42.30;;;25.70;59.10;;;;;;5063342;28;20526;-79
2021/06/11 09:22:49;;;;;;;42.03;39.43;;;25.60;59.40;;;;;;5080205;28;20591;-79
2021/06/11 09:25:33;;;;;;;40.17;37.67;;;25.60;58.50;;;;;;5082402;28;20491;-79
2021/06/11 09:28:01;;;;;;;42.50;39.90;;;25.70;57.90;;;;;;5085073;28;20461;-79
2021/06/11 09:30:45;;;;;;;44.30;41.80;;;25.80;58.00;;;;;;5067781;28;20458;-79
2021/06/11 09:33:14;;;;;;;44.90;42.20;;;25.80;58.50;;;;;;5069138;28;20480;-79
2021/06/11 09:35:43;;;;;;;42.73;40.03;;;25.70;58.00;;;;;;5081645;28;20457;-79
2021/06/11 09:38:18;;;;;;;41.87;39.17;;;25.90;56.80;;;;;;5070260;28;20545;-79
2021/06/11 09:40:46;;;;;;;43.27;40.37;;;26.10;54.90;;;;;;5079808;28;21000;-79
2021/06/11 09:43:13;;;;;;;43.83;41.17;;;26.30;55.10;;;;;;5068689;28;20490;-79
2021/06/11 09:45:41;;;;;;;43.43;40.33;;;26.30;55.70;;;;;;5071414;28;21320;-79
2021/06/11 09:48:19;;;;;;;45.10;42.30;;;26.60;55.80;;;;;;5090404;28;20449;-79
2021/06/11 09:50:49;;;;;;;45.30;42.40;;;26.80;54.40;;;;;;5089294;28;20460;-79
2021/06/11 09:53:16;;;;;;;43.10;40.50;;;27.00;53.70;;;;;;5071402;28;20469;-79
2021/06/11 09:55:45;;;;;;;46.50;43.60;;;26.90;53.10;;;;;;5070483;28;20561;-79
2021/06/11 09:58:14;;;;;;;43.90;41.20;;;26.90;53.10;;;;;;5069217;28;20515;-79
2021/06/11 10:00:49;;;;;;;44.50;41.60;;;26.90;53.20;;;;;;5071192;28;20479;-79
2021/06/11 10:03:17;;;;;;;46.77;43.67;;;27.00;53.60;;;;;;5075202;28;20487;-79
2021/06/11 10:05:45;;;;;;;45.17;42.33;;;27.20;54.80;;;;;;5088560;28;20445;-79
2021/06/11 10:08:12;;;;;;;44.00;41.23;;;27.30;54.50;;;;;;5093646;28;20967;-79
2021/06/11 10:10:40;;;;;;;47.40;44.47;;;27.60;53.40;;;;;;5092093;28;20465;-79
2021/06/11 10:13:10;;;;;;;50.10;46.63;;;27.60;52.40;;;;;;5070904;28;20478;-79
2021/06/11 10:15:37;;;;;;;45.07;41.97;;;27.50;53.10;;;;;;5071309;28;20454;-80
2021/06/11 10:18:06;;;;;;;48.30;45.20;;;27.40;53.00;;;;;;5066009;28;20579;-79
2021/06/11 10:20:32;;;;;;;52.97;47.47;;;27.50;52.70;;;;;;5077298;28;20453;-80
2021/06/11 10:23:00;;;;;;;48.37;45.10;;;27.50;53.30;;;;;;5080670;28;20600;-79
2021/06/11 10:25:26;;;;;;;45.20;42.10;;;27.70;52.10;;;;;;5087487;28;20481;-79
2021/06/11 10:27:53;;;;;;;46.37;43.27;;;27.80;52.30;;;;;;5087742;28;20479;-79
2021/06/11 10:30:20;;;;;;;45.43;42.43;;;28.00;52.00;;;;;;5081123;28;20454;-79
2021/06/11 10:32:48;;;;;;;43.60;40.50;;;28.20;52.00;;;;;;5085448;28;20571;-79
2021/06/11 10:35:36;;;;;;;46.20;43.20;;;28.50;51.40;;;;;;5086911;28;21017;-79
2021/06/11 10:38:03;;;;;;;46.87;42.50;;;28.70;51.50;;;;;;5069413;28;20484;-79
2021/06/11 10:40:35;;;;;;;47.23;43.43;;;28.80;50.40;;;;;;5090687;28;20453;-79
2021/06/11 10:43:24;;;;;;;47.60;42.77;;;28.80;50.10;;;;;;5088855;28;20580;-79
2021/06/11 10:45:52;;;;;;;45.27;41.53;;;29.00;50.20;;;;;;5064459;28;20465;-79
2021/06/11 10:48:19;;;;;;;44.27;41.23;;;29.00;50.20;;;;;;5085878;28;20549;-79
2021/06/11 10:50:47;;;;;;;44.87;42.07;;;29.20;49.80;;;;;;5085497;28;20822;-79
2021/06/11 10:53:26;;;;;;;45.00;42.07;;;29.10;49.60;;;;;;5069109;28;20566;-80
2021/06/11 10:56:13;;;;;;;44.83;41.70;;;29.10;48.90;;;;;;5083632;28;20483;-78
2021/06/11 10:58:40;;;;;;;45.63;42.70;;;29.10;49.80;;;;;;5079852;28;20468;-83
2021/06/11 11:01:24;;;;;;;45.80;42.70;;;29.10;49.20;;;;;;5080684;28;20458;-82
2021/06/11 11:03:50;;;;;;;43.57;40.50;;;29.30;46.90;;;;;;5081344;28;20480;-82
2021/06/11 11:06:42;;;;;;;42.60;39.80;;;29.10;47.50;;;;;;5077441;28;20474;-82
2021/06/11 11:09:09;;;;;;;45.90;42.83;;;29.00;47.50;;;;;;5066619;28;20887;-84
2021/06/11 11:11:42;;;;;;;45.63;42.73;;;28.70;48.40;;;;;;5082139;28;20465;-82
2021/06/11 11:14:39;;;;;;;44.40;41.60;;;28.60;48.30;;;;;;5089281;28;20493;-79
2021/06/11 11:17:06;;;;;;;45.97;43.07;;;28.30;49.40;;;;;;5080450;28;20461;-79
2021/06/11 11:19:50;;;;;;;45.10;42.37;;;28.00;50.10;;;;;;5080434;28;21257;-79
2021/06/11 11:22:29;;;;;;;48.63;45.43;;;27.80;50.70;;;;;;5078165;28;20527;-81
2021/06/11 11:24:57;;;;;;;44.93;42.00;;;27.50;50.50;;;;;;5075298;28;20480;-81
2021/06/11 11:27:25;;;;;;;45.40;42.50;;;27.30;51.50;;;;;;5076724;28;20456;-81
2021/06/11 11:29:53;;;;;;;45.27;42.17;;;27.30;51.80;;;;;;5078447;28;20488;-81
2021/06/11 11:32:20;;;;;;;44.73;41.83;;;27.20;51.90;;;;;;5077176;28;20461;-83
2021/06/11 11:34:47;;;;;;;48.83;45.67;;;27.30;51.90;;;;;;5087872;28;20935;-82
2021/06/11 11:37:13;;;;;;;47.30;44.20;;;27.60;51.80;;;;;;5083159;28;20458;-83
2021/06/11 11:39:42;;;;;;;44.93;42.03;;;27.90;51.90;;;;;;5090111;28;20458;-82
2021/06/11 11:42:11;;;;;;;47.23;44.33;;;28.20;50.50;;;;;;5091673;28;21112;-84
2021/06/11 11:44:38;;;;;;;42.33;39.60;;;28.40;49.60;;;;;;5086225;28;20495;-80
2021/06/11 11:47:05;;;;;;;45.50;42.60;;;28.40;49.10;;;;;;5073713;28;20491;-79
2021/06/11 11:49:31;;;;;;;48.30;45.10;;;28.10;49.70;;;;;;5075970;28;20491;-78
2021/06/11 11:51:58;;;;;;;44.80;41.90;;;27.80;50.20;;;;;;5073500;28;20454;-78
2021/06/11 11:54:24;;;;;;;44.17;41.27;;;27.80;50.20;;;;;;5074505;28;20525;-79
2021/06/11 11:56:52;;;;;;;46.47;43.37;;;27.70;50.10;;;;;;5074739;28;20462;-79
2021/06/11 11:59:18;;;;;;;41.73;39.10;;;27.70;50.10;;;;;;5075686;28;20614;-80
2021/06/11 12:01:45;;;;;;;50.63;47.53;;;27.80;50.30;;;;;;5080248;28;20485;-80
2021/06/11 12:04:13;;;;;;;45.00;42.07;;;27.90;51.00;;;;;;5075370;28;20474;-80
2021/06/11 12:06:41;;;;;;;45.77;42.77;;;28.20;49.80;;;;;;5085380;28;20445;-81
2021/06/11 12:09:08;;;;;;;48.67;45.20;;;28.20;48.80;;;;;;5090515;28;20457;-81
2021/06/11 12:11:34;;;;;;;42.17;38.67;;;28.10;50.10;;;;;;5089507;28;20970;-82
2021/06/11 12:14:03;;;;;;;41.07;38.30;;;28.40;49.50;;;;;;5078216;28;20477;-82
2021/06/11 12:16:30;;;;;;;41.93;39.23;;;28.40;48.10;;;;;;5075537;28;20483;-81
2021/06/11 12:18:57;;;;;;;45.90;42.90;;;28.40;48.60;;;;;;5077122;28;20491;-81
2021/06/11 12:21:24;;;;;;;41.10;38.50;;;28.50;49.00;;;;;;5071780;28;21038;-82
2021/06/11 12:23:50;;;;;;;43.97;40.90;;;28.80;47.40;;;;;;5073952;28;20910;-82
2021/06/11 12:26:17;;;;;;;41.13;38.63;;;29.00;47.40;;;;;;5069340;28;20922;-81
2021/06/11 12:28:44;;;;;;;40.37;37.67;;;29.10;46.20;;;;;;5074522;28;21327;-80
2021/06/11 12:31:12;;;;;;;39.93;37.43;;;29.20;45.90;;;;;;5070854;28;20970;-79
2021/06/11 12:33:38;;;;;;;40.57;38.07;;;29.50;45.40;;;;;;5076952;28;20568;-79
2021/06/11 12:36:05;;;;;;;37.87;35.57;;;29.70;44.70;;;;;;5075813;28;20457;-79